CFG4RT EDDL-LEPA
Flight info
| Callsign | CFG4RT |
|---|---|
| Flight time | N/A |
| Altitude | 24000 |
| Route | MODRU7Z MODRU Z283 LNO/N0450F330 Z283 SOPOK DCT ROUSY DCT GTQ DCT POGOL DCT LASAT DCT MOROK DCT GILIR DCT GEVEA DCT INCUS DCT BALSI DCT RETNO DCT TUPOX DCT MTG DCT DIVKO DCT VATIR DCT PIVUS DCT BODEQ DCT VERSO DCT LUNIK |
| Aircraft | A321/M-SDE3FGHIJ1LORVWXYZ/LB1D1 |
Departure
| Time | N/A |
|---|---|
| Airport | Düsseldorf Airport (EDDL) |
Arrival
| Time | 2026-05-01 08:07 |
|---|---|
| Airport | Palma de Mallorca Airport (LEPA) |
| Time | Latitude | Longitude | Altitude | Speed | Heading |
|---|---|---|---|---|---|
| 2026-05-01 07:23 | 43.01111 | 4.74268 | 35272 ft | 442 kts | 212° |
| 2026-05-01 07:24 | 42.93043 | 4.68144 | 35274 ft | 442 kts | 212° |
| 2026-05-01 07:24 | 42.87666 | 4.64084 | 35272 ft | 442 kts | 212° |
| 2026-05-01 07:25 | 42.82287 | 4.60027 | 35266 ft | 441 kts | 212° |
| 2026-05-01 07:25 | 42.77821 | 4.56663 | 35267 ft | 441 kts | 211° |
| 2026-05-01 07:26 | 42.72450 | 4.52632 | 35263 ft | 440 kts | 211° |
| 2026-05-01 07:26 | 42.67088 | 4.48609 | 35266 ft | 440 kts | 211° |
| 2026-05-01 07:27 | 42.61729 | 4.44596 | 35266 ft | 440 kts | 211° |
| 2026-05-01 07:27 | 42.56375 | 4.40593 | 35254 ft | 439 kts | 212° |
| 2026-05-01 07:28 | 42.51017 | 4.36588 | 35249 ft | 439 kts | 212° |
| 2026-05-01 07:28 | 42.45663 | 4.32598 | 35261 ft | 439 kts | 211° |
| 2026-05-01 07:29 | 42.40310 | 4.28630 | 35243 ft | 439 kts | 211° |
| 2026-05-01 07:29 | 42.34952 | 4.24664 | 35248 ft | 439 kts | 211° |
| 2026-05-01 07:30 | 42.29598 | 4.20707 | 35235 ft | 439 kts | 211° |
| 2026-05-01 07:30 | 42.24247 | 4.16746 | 35239 ft | 439 kts | 211° |
| 2026-05-01 07:31 | 42.18894 | 4.12792 | 35227 ft | 439 kts | 211° |
| 2026-05-01 07:32 | 42.05495 | 4.02949 | 35228 ft | 439 kts | 211° |
| 2026-05-01 07:33 | 41.97452 | 3.97063 | 35224 ft | 439 kts | 211° |
| 2026-05-01 07:33 | 41.88936 | 3.92569 | 35214 ft | 445 kts | 192° |
| 2026-05-01 07:34 | 41.79779 | 3.90471 | 35219 ft | 445 kts | 193° |
| 2026-05-01 07:35 | 41.73684 | 3.89051 | 35215 ft | 444 kts | 193° |
| 2026-05-01 07:35 | 41.67593 | 3.87646 | 35213 ft | 444 kts | 193° |
| 2026-05-01 07:36 | 41.61510 | 3.86257 | 35221 ft | 443 kts | 193° |
| 2026-05-01 07:36 | 41.55436 | 3.84868 | 35218 ft | 443 kts | 193° |
| 2026-05-01 07:37 | 41.46336 | 3.82774 | 35207 ft | 442 kts | 193° |
| 2026-05-01 07:37 | 41.40295 | 3.81393 | 35215 ft | 441 kts | 192° |
| 2026-05-01 07:38 | 41.34249 | 3.80016 | 35220 ft | 440 kts | 192° |
| 2026-05-01 07:39 | 41.25216 | 3.77958 | 35214 ft | 438 kts | 192° |
| 2026-05-01 07:39 | 41.16218 | 3.75882 | 35202 ft | 436 kts | 195° |
| 2026-05-01 07:40 | 41.10525 | 3.73240 | 35199 ft | 433 kts | 204° |
| 2026-05-01 07:40 | 41.04901 | 3.70336 | 35183 ft | 433 kts | 203° |
| 2026-05-01 07:41 | 40.99278 | 3.67451 | 35186 ft | 433 kts | 203° |
| 2026-05-01 07:42 | 40.90883 | 3.63142 | 35184 ft | 433 kts | 203° |
| 2026-05-01 07:42 | 40.85257 | 3.60251 | 35186 ft | 434 kts | 203° |
| 2026-05-01 07:43 | 40.79632 | 3.57372 | 35186 ft | 433 kts | 203° |
| 2026-05-01 07:43 | 40.71199 | 3.53075 | 35185 ft | 433 kts | 203° |
| 2026-05-01 07:44 | 40.59952 | 3.47359 | 35184 ft | 434 kts | 203° |
| 2026-05-01 07:45 | 40.54318 | 3.44515 | 35171 ft | 434 kts | 203° |
| 2026-05-01 07:45 | 40.48677 | 3.41650 | 35172 ft | 435 kts | 203° |
| 2026-05-01 07:46 | 40.42820 | 3.39596 | 35169 ft | 439 kts | 187° |
| 2026-05-01 07:47 | 40.33610 | 3.39857 | 35161 ft | 443 kts | 180° |
| 2026-05-01 07:47 | 40.30528 | 3.40030 | 35022 ft | 441 kts | 180° |
| 2026-05-01 07:47 | 40.27469 | 3.40200 | 33581 ft | 443 kts | 180° |
| 2026-05-01 07:47 | 40.24344 | 3.40371 | 31568 ft | 455 kts | 180° |
| 2026-05-01 07:48 | 40.17914 | 3.40730 | 27508 ft | 469 kts | 179° |
| 2026-05-01 07:48 | 40.14715 | 3.40907 | 26024 ft | 463 kts | 179° |
| 2026-05-01 07:48 | 40.11528 | 3.41091 | 24632 ft | 455 kts | 179° |
| 2026-05-01 07:49 | 40.08392 | 3.41272 | 23205 ft | 448 kts | 179° |
| 2026-05-01 07:49 | 40.02257 | 3.41622 | 21127 ft | 434 kts | 179° |
| 2026-05-01 07:49 | 39.99284 | 3.41790 | 20728 ft | 424 kts | 179° |
| 2026-05-01 07:50 | 39.96354 | 3.41953 | 20200 ft | 418 kts | 179° |
| 2026-05-01 07:50 | 39.90632 | 3.42277 | 19243 ft | 406 kts | 179° |
| 2026-05-01 07:50 | 39.87826 | 3.42433 | 18773 ft | 400 kts | 179° |
| 2026-05-01 07:51 | 39.85062 | 3.42584 | 18290 ft | 395 kts | 179° |
| 2026-05-01 07:51 | 39.82329 | 3.42735 | 17812 ft | 390 kts | 179° |
| 2026-05-01 07:51 | 39.79643 | 3.42885 | 17367 ft | 384 kts | 179° |
| 2026-05-01 07:52 | 39.74387 | 3.42873 | 16442 ft | 372 kts | 192° |
| 2026-05-01 07:52 | 39.71929 | 3.41929 | 15991 ft | 366 kts | 206° |
| 2026-05-01 07:52 | 39.69757 | 3.40277 | 15527 ft | 360 kts | 219° |
| 2026-05-01 07:53 | 39.66705 | 3.35455 | 15089 ft | 335 kts | 245° |
| 2026-05-01 07:53 | 39.65685 | 3.32798 | 14978 ft | 322 kts | 245° |
| 2026-05-01 07:53 | 39.64696 | 3.30244 | 14835 ft | 312 kts | 245° |
| 2026-05-01 07:53 | 39.63728 | 3.27750 | 14634 ft | 305 kts | 245° |
| 2026-05-01 07:54 | 39.61827 | 3.22836 | 14363 ft | 305 kts | 245° |
| 2026-05-01 07:55 | 39.58968 | 3.15438 | 13128 ft | 303 kts | 244° |
| 2026-05-01 07:55 | 39.57092 | 3.10600 | 12380 ft | 298 kts | 244° |
| 2026-05-01 07:56 | 39.54326 | 3.03481 | 11257 ft | 293 kts | 243° |
| 2026-05-01 07:56 | 39.52508 | 2.98820 | 10540 ft | 290 kts | 243° |
| 2026-05-01 07:57 | 39.51590 | 2.96464 | 10185 ft | 288 kts | 242° |
| 2026-05-01 07:57 | 39.49805 | 2.91900 | 9394 ft | 285 kts | 242° |
| 2026-05-01 07:58 | 39.48027 | 2.87359 | 7958 ft | 279 kts | 242° |
| 2026-05-01 07:58 | 39.46259 | 2.82842 | 7173 ft | 283 kts | 241° |
| 2026-05-01 07:59 | 39.44478 | 2.78296 | 6357 ft | 283 kts | 242° |
| 2026-05-01 07:59 | 39.43301 | 2.73496 | 5566 ft | 283 kts | 263° |
| 2026-05-01 08:00 | 39.42415 | 2.63536 | 4051 ft | 258 kts | 264° |
| 2026-05-01 08:01 | 39.41814 | 2.57085 | 3615 ft | 221 kts | 264° |
| 2026-05-01 08:01 | 39.41640 | 2.55217 | 3483 ft | 200 kts | 264° |
| 2026-05-01 08:01 | 39.41817 | 2.53512 | 3297 ft | 190 kts | 302° |
| 2026-05-01 08:02 | 39.43807 | 2.51393 | 3172 ft | 186 kts | 337° |
| 2026-05-01 08:02 | 39.45035 | 2.51316 | 3070 ft | 181 kts | 24° |
| 2026-05-01 08:03 | 39.46498 | 2.53899 | 2964 ft | 182 kts | 55° |
| 2026-05-01 08:03 | 39.47181 | 2.55258 | 2796 ft | 182 kts | 56° |
| 2026-05-01 08:03 | 39.48485 | 2.57952 | 2360 ft | 169 kts | 57° |
| 2026-05-01 08:04 | 39.49659 | 2.60418 | 1930 ft | 155 kts | 58° |
| 2026-05-01 08:04 | 39.50721 | 2.62652 | 1529 ft | 142 kts | 58° |
| 2026-05-01 08:05 | 39.51748 | 2.64816 | 1151 ft | 142 kts | 58° |
| 2026-05-01 08:05 | 39.52265 | 2.65901 | 965 ft | 141 kts | 58° |
| 2026-05-01 08:05 | 39.52776 | 2.66984 | 782 ft | 140 kts | 58° |
| 2026-05-01 08:06 | 39.53798 | 2.69113 | 438 ft | 141 kts | 55° |
| 2026-05-01 08:06 | 39.54804 | 2.71254 | 59 ft | 139 kts | 59° |
| 2026-05-01 08:07 | 39.55530 | 2.72791 | 38 ft | 50 kts | 58° |
| 2026-05-01 08:07 | 39.55713 | 2.73237 | 38 ft | 16 kts | 81° |
| 2026-05-01 08:08 | 39.55718 | 2.73375 | 38 ft | 15 kts | 89° |
| 2026-05-01 08:08 | 39.55664 | 2.73519 | 38 ft | 9 kts | 212° |
| 2026-05-01 08:09 | 39.55571 | 2.73539 | 38 ft | 6 kts | 149° |
| 2026-05-01 08:09 | 39.55536 | 2.73566 | 38 ft | 6 kts | 148° |
| 2026-05-01 08:09 | 39.55493 | 2.73546 | 38 ft | 10 kts | 240° |
| 2026-05-01 08:10 | 39.55390 | 2.73469 | 38 ft | 8 kts | 151° |
| 2026-05-01 08:10 | 39.55271 | 2.73561 | 37 ft | 17 kts | 149° |
| 2026-05-01 08:11 | 39.55153 | 2.73633 | 38 ft | 7 kts | 205° |
| 2026-05-01 08:11 | 39.55105 | 2.73536 | 38 ft | 8 kts | 238° |
| 2026-05-01 08:12 | 39.55042 | 2.73401 | 38 ft | 9 kts | 243° |
| 2026-05-01 08:12 | 39.55009 | 2.73383 | 38 ft | 2 kts | 170° |
| 2026-05-01 08:12 | 39.54986 | 2.73391 | 38 ft | 2 kts | 165° |
| 2026-05-01 08:13 | 39.54984 | 2.73391 | 38 ft | 0 kts | 165° |